sensor_id;sensor_type;location;lat;lon;timestamp;pressure;altitude;pressure_sealevel;temperature;humidity
45525;BME280;31437;58.350;13.828;2023-02-26T00:00:24;100590.84;;;-2.69;100.00
45525;BME280;31437;58.350;13.828;2023-02-26T00:02:50;100597.63;;;-2.75;100.00
45525;BME280;31437;58.350;13.828;2023-02-26T00:05:15;100595.91;;;-2.79;100.00
45525;BME280;31437;58.350;13.828;2023-02-26T00:07:41;100589.91;;;-2.79;100.00
45525;BME280;31437;58.350;13.828;2023-02-26T00:10:07;100586.50;;;-2.77;100.00
45525;BME280;31437;58.350;13.828;2023-02-26T00:12:33;100598.44;;;-2.80;100.00
45525;BME280;31437;58.350;13.828;2023-02-26T00:14:58;100595.03;;;-2.82;100.00
45525;BME280;31437;58.350;13.828;2023-02-26T00:19:55;100617.25;;;-2.87;100.00
45525;BME280;31437;58.350;13.828;2023-02-26T00:22:20;100614.66;;;-2.90;100.00
45525;BME280;31437;58.350;13.828;2023-02-26T00:24:46;100616.34;;;-2.92;100.00
45525;BME280;31437;58.350;13.828;2023-02-26T00:27:11;100618.88;;;-2.95;100.00
45525;BME280;31437;58.350;13.828;2023-02-26T00:29:37;100626.59;;;-2.95;100.00
45525;BME280;31437;58.350;13.828;2023-02-26T00:32:02;100636.81;;;-3.00;100.00
45525;BME280;31437;58.350;13.828;2023-02-26T00:34:28;100638.56;;;-2.99;100.00
45525;BME280;31437;58.350;13.828;2023-02-26T00:41:50;100644.50;;;-3.02;100.00
45525;BME280;31437;58.350;13.828;2023-02-26T00:44:15;100651.31;;;-3.07;100.00
45525;BME280;31437;58.350;13.828;2023-02-26T00:46:45;100648.72;;;-3.10;100.00
45525;BME280;31437;58.350;13.828;2023-02-26T00:51:57;100663.19;;;-3.15;100.00
45525;BME280;31437;58.350;13.828;2023-02-26T00:54:27;100670.94;;;-3.12;100.00
45525;BME280;31437;58.350;13.828;2023-02-26T00:56:53;100670.88;;;-3.18;100.00
45525;BME280;31437;58.350;13.828;2023-02-26T00:59:19;100667.47;;;-3.20;100.00
45525;BME280;31437;58.350;13.828;2023-02-26T01:01:44;100673.38;;;-3.24;100.00
45525;BME280;31437;58.350;13.828;2023-02-26T01:04:10;100669.09;;;-3.27;100.00
45525;BME280;31437;58.350;13.828;2023-02-26T01:06:38;100673.38;;;-3.24;100.00
45525;BME280;31437;58.350;13.828;2023-02-26T01:09:16;100681.06;;;-3.27;100.00
45525;BME280;31437;58.350;13.828;2023-02-26T01:11:46;100690.47;;;-3.29;100.00
45525;BME280;31437;58.350;13.828;2023-02-26T01:14:11;100684.41;;;-3.34;100.00
45525;BME280;31437;58.350;13.828;2023-02-26T01:16:46;100689.56;;;-3.33;100.00
45525;BME280;31437;58.350;13.828;2023-02-26T01:19:23;100690.34;;;-3.38;100.00
45525;BME280;31437;58.350;13.828;2023-02-26T01:21:54;100691.19;;;-3.41;100.00
45525;BME280;31437;58.350;13.828;2023-02-26T01:24:20;100692.06;;;-3.39;100.00
45525;BME280;31437;58.350;13.828;2023-02-26T01:26:47;100701.47;;;-3.39;100.00
45525;BME280;31437;58.350;13.828;2023-02-26T01:29:14;100695.47;;;-3.40;100.00
45525;BME280;31437;58.350;13.828;2023-02-26T01:31:48;100713.44;;;-3.40;100.00
45525;BME280;31437;58.350;13.828;2023-02-26T01:34:17;100714.28;;;-3.39;100.00
45525;BME280;31437;58.350;13.828;2023-02-26T01:36:47;100711.75;;;-3.38;100.00
45525;BME280;31437;58.350;13.828;2023-02-26T01:39:24;100727.09;;;-3.43;100.00
45525;BME280;31437;58.350;13.828;2023-02-26T01:41:51;100715.94;;;-3.45;100.00
45525;BME280;31437;58.350;13.828;2023-02-26T01:44:36;100724.44;;;-3.49;100.00
45525;BME280;31437;58.350;13.828;2023-02-26T01:47:08;100726.97;;;-3.50;100.00
45525;BME280;31437;58.350;13.828;2023-02-26T01:49:37;100737.22;;;-3.53;100.00
45525;BME280;31437;58.350;13.828;2023-02-26T01:53:17;100738.13;;;-3.50;100.00
45525;BME280;31437;58.350;13.828;2023-02-26T01:54:48;100748.34;;;-3.51;100.00
45525;BME280;31437;58.350;13.828;2023-02-26T01:57:14;100748.31;;;-3.56;100.00
45525;BME280;31437;58.350;13.828;2023-02-26T01:59:42;100751.69;;;-3.57;100.00
45525;BME280;31437;58.350;13.828;2023-02-26T02:02:08;100757.66;;;-3.61;100.00
45525;BME280;31437;58.350;13.828;2023-02-26T02:04:34;100762.81;;;-3.56;100.00
45525;BME280;31437;58.350;13.828;2023-02-26T02:07:00;100764.56;;;-3.55;100.00
45525;BME280;31437;58.350;13.828;2023-02-26T02:09:25;100765.41;;;-3.55;100.00
45525;BME280;31437;58.350;13.828;2023-02-26T02:11:59;100767.13;;;-3.54;100.00
45525;BME280;31437;58.350;13.828;2023-02-26T02:14:30;100766.19;;;-3.59;100.00
45525;BME280;31437;58.350;13.828;2023-02-26T02:27:18;100784.13;;;-3.63;100.00
45525;BME280;31437;58.350;13.828;2023-02-26T02:29:49;100783.22;;;-3.66;100.00
45525;BME280;31437;58.350;13.828;2023-02-26T02:35:43;100782.41;;;-3.63;100.00
45525;BME280;31437;58.350;13.828;2023-02-26T02:37:40;100785.81;;;-3.62;100.00
45525;BME280;31437;58.350;13.828;2023-02-26T02:40:13;100784.09;;;-3.65;100.00
45525;BME280;31437;58.350;13.828;2023-02-26T02:42:42;100789.22;;;-3.67;100.00
45525;BME280;31437;58.350;13.828;2023-02-26T02:45:13;100794.34;;;-3.65;100.00
45525;BME280;31437;58.350;13.828;2023-02-26T02:47:41;100786.69;;;-3.63;100.00
45525;BME280;31437;58.350;13.828;2023-02-26T02:52:39;100790.84;;;-3.73;100.00
45525;BME280;31437;58.350;13.828;2023-02-26T02:55:26;100796.75;;;-3.79;100.00
45525;BME280;31437;58.350;13.828;2023-02-26T02:57:54;100796.75;;;-3.79;100.00
45525;BME280;31437;58.350;13.828;2023-02-26T03:00:23;100804.44;;;-3.79;100.00
45525;BME280;31437;58.350;13.828;2023-02-26T03:02:52;100812.97;;;-3.77;100.00
45525;BME280;31437;58.350;13.828;2023-02-26T03:05:21;100812.97;;;-3.78;100.00
45525;BME280;31437;58.350;13.828;2023-02-26T03:07:57;100817.28;;;-3.74;100.00
45525;BME280;31437;58.350;13.828;2023-02-26T03:10:23;100820.72;;;-3.75;100.00
45525;BME280;31437;58.350;13.828;2023-02-26T03:12:48;100818.06;;;-3.80;100.00
45525;BME280;31437;58.350;13.828;2023-02-26T03:15:14;100822.34;;;-3.82;100.00
45525;BME280;31437;58.350;13.828;2023-02-26T03:20:52;100830.00;;;-3.83;100.00
45525;BME280;31437;58.350;13.828;2023-02-26T03:23:21;100836.75;;;-3.89;100.00
45525;BME280;31437;58.350;13.828;2023-02-26T03:31:01;100844.53;;;-3.82;100.00
45525;BME280;31437;58.350;13.828;2023-02-26T03:36:18;100848.81;;;-3.81;100.00
45525;BME280;31437;58.350;13.828;2023-02-26T03:38:48;100848.84;;;-3.80;100.00
45525;BME280;31437;58.350;13.828;2023-02-26T03:44:15;100853.00;;;-3.86;100.00
45525;BME280;31437;58.350;13.828;2023-02-26T03:46:44;100860.63;;;-3.93;100.00
45525;BME280;31437;58.350;13.828;2023-02-26T03:49:11;100854.50;;;-4.01;100.00
45525;BME280;31437;58.350;13.828;2023-02-26T03:51:38;100853.56;;;-4.06;100.00
45525;BME280;31437;58.350;13.828;2023-02-26T03:54:07;100857.81;;;-4.08;100.00
45525;BME280;31437;58.350;13.828;2023-02-26T03:56:36;100864.69;;;-4.05;100.00
45525;BME280;31437;58.350;13.828;2023-02-26T03:59:03;100872.34;;;-4.08;100.00
45525;BME280;31437;58.350;13.828;2023-02-26T04:01:31;100866.31;;;-4.09;100.00
45525;BME280;31437;58.350;13.828;2023-02-26T04:04:05;100866.38;;;-4.07;100.00
45525;BME280;31437;58.350;13.828;2023-02-26T04:06:32;100874.06;;;-4.06;100.00
45525;BME280;31437;58.350;13.828;2023-02-26T04:08:58;100882.69;;;-4.01;100.00
45525;BME280;31437;58.350;13.828;2023-02-26T04:11:24;100869.94;;;-3.98;100.00
45525;BME280;31437;58.350;13.828;2023-02-26T04:13:50;100878.53;;;-3.94;100.00
45525;BME280;31437;58.350;13.828;2023-02-26T04:16:17;100886.28;;;-3.91;100.00
45525;BME280;31437;58.350;13.828;2023-02-26T04:18:42;100871.72;;;-3.92;100.00
45525;BME280;31437;58.350;13.828;2023-02-26T04:21:12;100884.59;;;-3.89;100.00
45525;BME280;31437;58.350;13.828;2023-02-26T04:23:38;100883.78;;;-3.86;100.00
45525;BME280;31437;58.350;13.828;2023-02-26T04:26:03;100888.00;;;-3.90;100.00
45525;BME280;31437;58.350;13.828;2023-02-26T04:28:28;100887.16;;;-3.91;100.00
45525;BME280;31437;58.350;13.828;2023-02-26T04:30:54;100910.28;;;-3.88;100.00
45525;BME280;31437;58.350;13.828;2023-02-26T04:33:19;100895.75;;;-3.87;100.00
45525;BME280;31437;58.350;13.828;2023-02-26T04:35:44;100905.09;;;-3.91;100.00
45525;BME280;31437;58.350;13.828;2023-02-26T04:38:10;100893.94;;;-3.93;100.00
45525;BME280;31437;58.350;13.828;2023-02-26T04:40:35;100886.25;;;-3.93;100.00
45525;BME280;31437;58.350;13.828;2023-02-26T04:43:00;100894.84;;;-3.91;100.00
45525;BME280;31437;58.350;13.828;2023-02-26T04:45:26;100899.16;;;-3.88;100.00
45525;BME280;31437;58.350;13.828;2023-02-26T04:47:52;100889.00;;;-3.82;100.00
45525;BME280;31437;58.350;13.828;2023-02-26T04:50:17;100900.16;;;-3.78;100.00
45525;BME280;31437;58.350;13.828;2023-02-26T04:52:42;100903.56;;;-3.78;100.00
45525;BME280;31437;58.350;13.828;2023-02-26T04:55:08;100900.22;;;-3.74;100.00
45525;BME280;31437;58.350;13.828;2023-02-26T04:57:33;100896.78;;;-3.74;100.00
45525;BME280;31437;58.350;13.828;2023-02-26T04:59:58;100882.16;;;-3.80;100.00
45525;BME280;31437;58.350;13.828;2023-02-26T05:02:24;100909.56;;;-3.77;100.00
45525;BME280;31437;58.350;13.828;2023-02-26T05:04:49;100908.69;;;-3.79;100.00
45525;BME280;31437;58.350;13.828;2023-02-26T05:07:14;100901.81;;;-3.80;100.00
45525;BME280;31437;58.350;13.828;2023-02-26T05:09:40;100910.34;;;-3.81;100.00
45525;BME280;31437;58.350;13.828;2023-02-26T05:12:05;100915.50;;;-3.81;100.00
45525;BME280;31437;58.350;13.828;2023-02-26T05:14:30;100916.25;;;-3.85;100.00
45525;BME280;31437;58.350;13.828;2023-02-26T05:16:56;100926.47;;;-3.89;100.00
45525;BME280;31437;58.350;13.828;2023-02-26T05:19:21;100931.66;;;-3.85;100.00
45525;BME280;31437;58.350;13.828;2023-02-26T05:21:46;100945.34;;;-3.83;100.00
45525;BME280;31437;58.350;13.828;2023-02-26T05:24:13;100942.78;;;-3.85;100.00
45525;BME280;31437;58.350;13.828;2023-02-26T05:26:38;100944.50;;;-3.84;100.00
45525;BME280;31437;58.350;13.828;2023-02-26T05:29:04;100947.91;;;-3.85;100.00
45525;BME280;31437;58.350;13.828;2023-02-26T05:31:29;100945.41;;;-3.82;100.00
45525;BME280;31437;58.350;13.828;2023-02-26T05:33:54;100947.97;;;-3.82;100.00
45525;BME280;31437;58.350;13.828;2023-02-26T05:36:20;100956.56;;;-3.78;100.00
45525;BME280;31437;58.350;13.828;2023-02-26T05:38:45;100946.25;;;-3.81;100.00
45525;BME280;31437;58.350;13.828;2023-02-26T05:41:10;100952.34;;;-3.76;100.00
45525;BME280;31437;58.350;13.828;2023-02-26T05:43:36;100954.94;;;-3.72;100.00
45525;BME280;31437;58.350;13.828;2023-02-26T05:46:01;100958.41;;;-3.70;100.00
45525;BME280;31437;58.350;13.828;2023-02-26T05:48:26;100965.25;;;-3.69;100.00
45525;BME280;31437;58.350;13.828;2023-02-26T05:50:52;100961.03;;;-3.65;100.00
45525;BME280;31437;58.350;13.828;2023-02-26T05:53:17;100967.81;;;-3.70;100.00
45525;BME280;31437;58.350;13.828;2023-02-26T05:55:43;100972.03;;;-3.72;100.00
45525;BME280;31437;58.350;13.828;2023-02-26T05:58:08;100966.91;;;-3.71;100.00
45525;BME280;31437;58.350;13.828;2023-02-26T06:00:33;100977.28;;;-3.66;100.00
45525;BME280;31437;58.350;13.828;2023-02-26T06:02:59;100971.34;;;-3.63;100.00
45525;BME280;31437;58.350;13.828;2023-02-26T06:05:24;100981.59;;;-3.62;100.00
45525;BME280;31437;58.350;13.828;2023-02-26T06:07:49;100980.78;;;-3.59;100.00
45525;BME280;31437;58.350;13.828;2023-02-26T06:10:15;100986.09;;;-3.49;100.00
45525;BME280;31437;58.350;13.828;2023-02-26T06:12:40;100986.97;;;-3.48;100.00
45525;BME280;31437;58.350;13.828;2023-02-26T06:15:06;100978.41;;;-3.49;100.00
45525;BME280;31437;58.350;13.828;2023-02-26T06:17:32;100987.00;;;-3.47;100.00
45525;BME280;31437;58.350;13.828;2023-02-26T06:19:57;100987.03;;;-3.44;100.00
45525;BME280;31437;58.350;13.828;2023-02-26T06:22:23;100978.53;;;-3.41;100.00
45525;BME280;31437;58.350;13.828;2023-02-26T06:24:48;100981.16;;;-3.38;100.00
45525;BME280;31437;58.350;13.828;2023-02-26T06:27:13;100999.16;;;-3.35;100.00
45525;BME280;31437;58.350;13.828;2023-02-26T06:29:39;100992.31;;;-3.33;100.00
45525;BME280;31437;58.350;13.828;2023-02-26T06:32:04;100998.34;;;-3.31;100.00
45525;BME280;31437;58.350;13.828;2023-02-26T06:34:30;100999.25;;;-3.29;100.00
45525;BME280;31437;58.350;13.828;2023-02-26T06:36:55;101005.28;;;-3.25;100.00
45525;BME280;31437;58.350;13.828;2023-02-26T06:39:21;101005.28;;;-3.25;100.00
45525;BME280;31437;58.350;13.828;2023-02-26T06:41:46;101013.19;;;-3.11;100.00
45525;BME280;31437;58.350;13.828;2023-02-26T06:44:11;101019.00;;;-2.62;100.00
45525;BME280;31437;58.350;13.828;2023-02-26T06:46:37;101028.13;;;-2.17;100.00
45525;BME280;31437;58.350;13.828;2023-02-26T06:49:03;101021.66;;;-1.77;100.00
45525;BME280;31437;58.350;13.828;2023-02-26T06:51:28;101019.31;;;-1.55;100.00
45525;BME280;31437;58.350;13.828;2023-02-26T06:53:54;101001.44;;;-1.32;100.00
45525;BME280;31437;58.350;13.828;2023-02-26T06:56:21;101012.75;;;-1.12;100.00
45525;BME280;31437;58.350;13.828;2023-02-26T06:58:47;101000.00;;;-0.97;100.00
45525;BME280;31437;58.350;13.828;2023-02-26T07:01:12;100995.78;;;-0.79;100.00
45525;BME280;31437;58.350;13.828;2023-02-26T07:03:37;100976.00;;;-0.85;100.00
45525;BME280;31437;58.350;13.828;2023-02-26T07:06:02;100974.41;;;-0.58;100.00
45525;BME280;31437;58.350;13.828;2023-02-26T07:08:28;100970.97;;;-0.54;100.00
45525;BME280;31437;58.350;13.828;2023-02-26T07:10:53;100975.34;;;-0.35;100.00
45525;BME280;31437;58.350;13.828;2023-02-26T07:13:18;100966.81;;;-0.14;100.00
45525;BME280;31437;58.350;13.828;2023-02-26T07:15:44;100971.13;;;-0.11;100.00
45525;BME280;31437;58.350;13.828;2023-02-26T07:18:09;100960.81;;;-0.02;100.00
45525;BME280;31437;58.350;13.828;2023-02-26T07:20:34;100955.66;;;-0.05;100.00
45525;BME280;31437;58.350;13.828;2023-02-26T07:23:03;100948.78;;;0.20;100.00
45525;BME280;31437;58.350;13.828;2023-02-26T07:25:28;100950.50;;;0.22;100.00
45525;BME280;31437;58.350;13.828;2023-02-26T07:27:54;100952.25;;;0.30;100.00
45525;BME280;31437;58.350;13.828;2023-02-26T07:30:20;100953.94;;;0.29;100.00
45525;BME280;31437;58.350;13.828;2023-02-26T07:32:51;100926.41;;;0.23;100.00
45525;BME280;31437;58.350;13.828;2023-02-26T07:35:17;100942.75;;;0.35;100.00
45525;BME280;31437;58.350;13.828;2023-02-26T07:37:42;100948.78;;;0.52;100.00
45525;BME280;31437;58.350;13.828;2023-02-26T07:40:08;100950.47;;;0.85;100.00
45525;BME280;31437;58.350;13.828;2023-02-26T07:42:40;100956.41;;;1.06;100.00
45525;BME280;31437;58.350;13.828;2023-02-26T07:45:06;100951.22;;;1.13;100.00
45525;BME280;31437;58.350;13.828;2023-02-26T07:47:32;100943.44;;;1.27;100.00
45525;BME280;31437;58.350;13.828;2023-02-26T07:49:58;100945.09;;;1.38;100.00
45525;BME280;31437;58.350;13.828;2023-02-26T07:52:23;100939.91;;;1.41;100.00
45525;BME280;31437;58.350;13.828;2023-02-26T07:54:48;100946.75;;;1.52;100.00
45525;BME280;31437;58.350;13.828;2023-02-26T07:57:14;100930.47;;;1.35;100.00
45525;BME280;31437;58.350;13.828;2023-02-26T07:59:39;100939.84;;;1.53;100.00
45525;BME280;31437;58.350;13.828;2023-02-26T08:02:04;100952.72;;;1.68;100.00
45525;BME280;31437;58.350;13.828;2023-02-26T08:04:30;100957.81;;;1.79;100.00
45525;BME280;31437;58.350;13.828;2023-02-26T08:06:57;100944.13;;;1.60;100.00
45525;BME280;31437;58.350;13.828;2023-02-26T08:09:22;100945.06;;;1.45;100.00
45525;BME280;31437;58.350;13.828;2023-02-26T08:11:48;100942.59;;;1.14;100.00
45525;BME280;31437;58.350;13.828;2023-02-26T08:14:13;100952.03;;;1.35;100.00
45525;BME280;31437;58.350;13.828;2023-02-26T08:16:38;100952.84;;;1.42;100.00
45525;BME280;31437;58.350;13.828;2023-02-26T08:19:03;100954.59;;;1.37;100.00
45525;BME280;31437;58.350;13.828;2023-02-26T08:21:29;100975.19;;;1.60;100.00
45525;BME280;31437;58.350;13.828;2023-02-26T08:23:54;100966.59;;;1.56;100.00
45525;BME280;31437;58.350;13.828;2023-02-26T08:26:19;100981.25;;;1.48;100.00
45525;BME280;31437;58.350;13.828;2023-02-26T08:28:45;100984.78;;;1.33;100.00
45525;BME280;31437;58.350;13.828;2023-02-26T08:31:11;100989.88;;;1.46;100.00
45525;BME280;31437;58.350;13.828;2023-02-26T08:33:38;100996.81;;;1.39;100.00
45525;BME280;31437;58.350;13.828;2023-02-26T08:36:03;101008.88;;;1.42;100.00
45525;BME280;31437;58.350;13.828;2023-02-26T08:38:29;101002.81;;;1.41;100.00
45525;BME280;31437;58.350;13.828;2023-02-26T08:40:55;101014.00;;;1.51;100.00
45525;BME280;31437;58.350;13.828;2023-02-26T08:43:20;101003.69;;;1.45;100.00
45525;BME280;31437;58.350;13.828;2023-02-26T08:45:46;101012.28;;;1.50;100.00
45525;BME280;31437;58.350;13.828;2023-02-26T08:48:11;101002.81;;;1.47;100.00
45525;BME280;31437;58.350;13.828;2023-02-26T08:50:37;101001.91;;;1.53;100.00
45525;BME280;31437;58.350;13.828;2023-02-26T08:53:04;101022.59;;;1.61;100.00
45525;BME280;31437;58.350;13.828;2023-02-26T08:55:30;101012.31;;;1.45;100.00
45525;BME280;31437;58.350;13.828;2023-02-26T08:57:55;101018.31;;;1.49;100.00
45525;BME280;31437;58.350;13.828;2023-02-26T09:00:21;101011.47;;;1.40;100.00
45525;BME280;31437;58.350;13.828;2023-02-26T09:02:46;101017.44;;;1.47;100.00
45525;BME280;31437;58.350;13.828;2023-02-26T09:05:11;101016.63;;;1.45;100.00
45525;BME280;31437;58.350;13.828;2023-02-26T09:07:39;101022.63;;;1.56;100.00
45525;BME280;31437;58.350;13.828;2023-02-26T09:10:05;101019.19;;;1.51;100.00
45525;BME280;31437;58.350;13.828;2023-02-26T09:12:33;101007.16;;;1.38;100.00
45525;BME280;31437;58.350;13.828;2023-02-26T09:15:01;101009.72;;;1.42;100.00
45525;BME280;31437;58.350;13.828;2023-02-26T09:17:27;101004.56;;;1.34;100.00
45525;BME280;31437;58.350;13.828;2023-02-26T09:19:52;101002.03;;;1.25;100.00
45525;BME280;31437;58.350;13.828;2023-02-26T09:22:17;100999.47;;;1.24;100.00
45525;BME280;31437;58.350;13.828;2023-02-26T09:24:43;101002.03;;;1.25;100.00
45525;BME280;31437;58.350;13.828;2023-02-26T09:27:08;101002.84;;;1.32;100.00
45525;BME280;31437;58.350;13.828;2023-02-26T09:29:33;101006.31;;;1.26;100.00
45525;BME280;31437;58.350;13.828;2023-02-26T09:31:59;101010.63;;;1.26;100.00
45525;BME280;31437;58.350;13.828;2023-02-26T09:34:24;101013.25;;;1.17;100.00
45525;BME280;31437;58.350;13.828;2023-02-26T09:36:49;101005.50;;;1.10;100.00
45525;BME280;31437;58.350;13.828;2023-02-26T09:39:15;101008.94;;;1.14;100.00
45525;BME280;31437;58.350;13.828;2023-02-26T09:41:42;101014.97;;;1.24;100.00
45525;BME280;31437;58.350;13.828;2023-02-26T09:44:23;101017.56;;;1.16;100.00
45525;BME280;31437;58.350;13.828;2023-02-26T09:49:30;101021.03;;;1.07;100.00
45525;BME280;31437;58.350;13.828;2023-02-26T09:54:36;101027.00;;;1.23;100.00
45525;BME280;31437;58.350;13.828;2023-02-26T09:57:05;101010.66;;;1.21;100.00
45525;BME280;31437;58.350;13.828;2023-02-26T09:59:34;101027.03;;;1.19;100.00
45525;BME280;31437;58.350;13.828;2023-02-26T10:12:18;101034.78;;;1.22;100.00
45525;BME280;31437;58.350;13.828;2023-02-26T10:17:27;101039.91;;;1.26;100.00
45525;BME280;31437;58.350;13.828;2023-02-26T10:19:56;101049.41;;;1.30;100.00
45525;BME280;31437;58.350;13.828;2023-02-26T10:22:36;101050.31;;;1.19;100.00
45525;BME280;31437;58.350;13.828;2023-02-26T10:25:29;101063.22;;;1.25;100.00
45525;BME280;31437;58.350;13.828;2023-02-26T10:28:05;101067.53;;;1.21;100.00
45525;BME280;31437;58.350;13.828;2023-02-26T10:33:38;101073.53;;;1.32;100.00
45525;BME280;31437;58.350;13.828;2023-02-26T10:36:28;101073.53;;;1.42;100.00
45525;BME280;31437;58.350;13.828;2023-02-26T10:38:54;101076.94;;;1.45;100.00
45525;BME280;31437;58.350;13.828;2023-02-26T10:41:24;101080.41;;;1.44;100.00
45525;BME280;31437;58.350;13.828;2023-02-26T10:44:11;101076.06;;;1.46;100.00
45525;BME280;31437;58.350;13.828;2023-02-26T10:46:44;101077.81;;;1.47;100.00
45525;BME280;31437;58.350;13.828;2023-02-26T10:51:46;101082.13;;;1.42;100.00
45525;BME280;31437;58.350;13.828;2023-02-26T10:56:45;101080.41;;;1.43;100.00
45525;BME280;31437;58.350;13.828;2023-02-26T10:59:10;101076.13;;;1.35;100.00
45525;BME280;31437;58.350;13.828;2023-02-26T11:01:36;101084.69;;;1.44;100.00
45525;BME280;31437;58.350;13.828;2023-02-26T11:04:21;101081.25;;;1.40;100.00
45525;BME280;31437;58.350;13.828;2023-02-26T11:07:08;101081.28;;;1.42;100.00
45525;BME280;31437;58.350;13.828;2023-02-26T11:09:34;101082.09;;;1.53;100.00
45525;BME280;31437;58.350;13.828;2023-02-26T11:14:31;101089.00;;;1.54;100.00
45525;BME280;31437;58.350;13.828;2023-02-26T11:16:57;101086.38;;;1.62;100.00
45525;BME280;31437;58.350;13.828;2023-02-26T11:19:27;101088.94;;;1.62;100.00
45525;BME280;31437;58.350;13.828;2023-02-26T11:21:53;101075.19;;;1.59;100.00
45525;BME280;31437;58.350;13.828;2023-02-26T11:24:22;101071.78;;;1.48;100.00
45525;BME280;31437;58.350;13.828;2023-02-26T11:26:53;101065.72;;;1.46;100.00
45525;BME280;31437;58.350;13.828;2023-02-26T11:29:19;101064.03;;;1.42;100.00
45525;BME280;31437;58.350;13.828;2023-02-26T11:31:51;101064.03;;;1.34;100.00
45525;BME280;31437;58.350;13.828;2023-02-26T11:34:17;101073.53;;;1.29;100.00
45525;BME280;31437;58.350;13.828;2023-02-26T11:36:45;101065.78;;;1.26;100.00
45525;BME280;31437;58.350;13.828;2023-02-26T11:39:18;101080.41;;;1.29;100.00
45525;BME280;31437;58.350;13.828;2023-02-26T11:41:45;101077.81;;;1.32;100.00
45525;BME280;31437;58.350;13.828;2023-02-26T11:44:18;101077.00;;;1.27;100.00
45525;BME280;31437;58.350;13.828;2023-02-26T11:46:56;101073.53;;;1.23;100.00
45525;BME280;31437;58.350;13.828;2023-02-26T11:49:23;101074.41;;;1.18;100.00
45525;BME280;31437;58.350;13.828;2023-02-26T11:51:59;101066.66;;;1.16;100.00
45525;BME280;31437;58.350;13.828;2023-02-26T11:54:26;101067.53;;;1.12;100.00
45525;BME280;31437;58.350;13.828;2023-02-26T11:56:52;101065.81;;;1.06;100.00
45525;BME280;31437;58.350;13.828;2023-02-26T11:59:24;101066.66;;;1.11;100.00
45525;BME280;31437;58.350;13.828;2023-02-26T12:01:50;101060.66;;;1.16;100.00
45525;BME280;31437;58.350;13.828;2023-02-26T12:04:23;101068.41;;;1.12;100.00
45525;BME280;31437;58.350;13.828;2023-02-26T12:06:49;101058.94;;;1.01;100.00
45525;BME280;31437;58.350;13.828;2023-02-26T12:09:15;101077.03;;;1.04;100.00
45525;BME280;31437;58.350;13.828;2023-02-26T12:12:24;101062.38;;;1.10;100.00
45525;BME280;31437;58.350;13.828;2023-02-26T12:17:12;101066.66;;;1.11;100.00
45525;BME280;31437;58.350;13.828;2023-02-26T12:19:48;101061.47;;;1.14;100.00
45525;BME280;31437;58.350;13.828;2023-02-26T12:22:28;101060.63;;;1.14;100.00
45525;BME280;31437;58.350;13.828;2023-02-26T12:30:08;101058.03;;;1.23;100.00
45525;BME280;31437;58.350;13.828;2023-02-26T12:38:20;101143.34;;;1.32;100.00
45525;BME280;31437;58.350;13.828;2023-02-26T12:40:50;100983.91;;;1.36;100.00
45525;BME280;31437;58.350;13.828;2023-02-26T12:53:50;100710.75;;;1.33;100.00
45525;BME280;31437;58.350;13.828;2023-02-26T13:16:38;100625.56;;;1.21;100.00
45525;BME280;31437;58.350;13.828;2023-02-26T13:21:47;100653.13;;;1.19;100.00
45525;BME280;31437;58.350;13.828;2023-02-26T13:24:31;100651.41;;;1.20;100.00
45525;BME280;31437;58.350;13.828;2023-02-26T13:26:58;100658.28;;;1.22;100.00
45525;BME280;31437;58.350;13.828;2023-02-26T13:29:28;100660.91;;;1.16;100.00
45525;BME280;31437;58.350;13.828;2023-02-26T13:32:05;100649.72;;;1.14;100.00
45525;BME280;31437;58.350;13.828;2023-02-26T13:42:18;100629.97;;;1.07;100.00
45525;BME280;31437;58.350;13.828;2023-02-26T13:47:30;100579.19;;;1.03;100.00
45525;BME280;31437;58.350;13.828;2023-02-26T13:50:04;100561.94;;;1.05;100.00
45525;BME280;31437;58.350;13.828;2023-02-26T13:52:47;100555.94;;;1.04;100.00
45525;BME280;31437;58.350;13.828;2023-02-26T13:55:34;100538.72;;;1.03;100.00
45525;BME280;31437;58.350;13.828;2023-02-26T13:57:58;100534.38;;;1.07;100.00
45525;BME280;31437;58.350;13.828;2023-02-26T14:00:40;100520.56;;;1.08;100.00
45525;BME280;31437;58.350;13.828;2023-02-26T14:03:11;100522.31;;;1.09;100.00
45525;BME280;31437;58.350;13.828;2023-02-26T14:08:56;100503.34;;;1.08;100.00
45525;BME280;31437;58.350;13.828;2023-02-26T14:11:03;100513.72;;;1.07;100.00
45525;BME280;31437;58.350;13.828;2023-02-26T14:13:37;100507.69;;;1.06;100.00
45525;BME280;31437;58.350;13.828;2023-02-26T14:16:12;100500.81;;;1.04;100.00
45525;BME280;31437;58.350;13.828;2023-02-26T14:23:47;100500.84;;;0.99;100.00
45525;BME280;31437;58.350;13.828;2023-02-26T14:26:15;100511.22;;;0.98;100.00
45525;BME280;31437;58.350;13.828;2023-02-26T14:28:43;100514.66;;;0.97;100.00
45525;BME280;31437;58.350;13.828;2023-02-26T14:31:19;100525.88;;;0.97;100.00
45525;BME280;31437;58.350;13.828;2023-02-26T14:33:56;100538.78;;;0.96;100.00
45525;BME280;31437;58.350;13.828;2023-02-26T14:37:06;100549.16;;;0.93;100.00
45525;BME280;31437;58.350;13.828;2023-02-26T14:39:15;100578.44;;;0.92;100.00
45525;BME280;31437;58.350;13.828;2023-02-26T14:41:42;100563.78;;;0.90;100.00
45525;BME280;31437;58.350;13.828;2023-02-26T14:44:18;100586.19;;;0.90;100.00
45525;BME280;31437;58.350;13.828;2023-02-26T14:46:46;100594.81;;;0.89;100.00
45525;BME280;31437;58.350;13.828;2023-02-26T14:49:22;100603.44;;;0.86;100.00
45525;BME280;31437;58.350;13.828;2023-02-26T14:59:23;100695.59;;;0.83;100.00
45525;BME280;31437;58.350;13.828;2023-02-26T15:10:01;100783.47;;;0.77;100.00